createdAt,value
2018-08-20T00:00:00.404Z,12.63
2018-08-20T00:00:35.573Z,10.67
2018-08-20T00:01:09.394Z,7.10
2018-08-20T00:01:44.917Z,9.87
2018-08-20T00:02:25.423Z,10.83
2018-08-20T00:02:59.638Z,13.53
2018-08-20T00:03:37.741Z,9.77
2018-08-20T00:04:11.946Z,9.17
2018-08-20T00:04:50.097Z,10.10
2018-08-20T00:05:24.465Z,8.00
2018-08-20T00:05:58.361Z,13.17
2018-08-20T00:06:44.029Z,13.00
2018-08-20T00:07:17.945Z,15.10
2018-08-20T00:07:53.456Z,12.67
2018-08-20T00:08:28.003Z,9.67
2018-08-20T00:09:02.784Z,12.00
2018-08-20T00:09:42.229Z,11.47
2018-08-20T00:10:16.065Z,11.40
2018-08-20T00:10:53.036Z,13.73
2018-08-20T00:11:27.235Z,11.93
2018-08-20T00:12:01.417Z,9.90
2018-08-20T00:12:35.269Z,13.97
2018-08-20T00:13:09.121Z,13.17
2018-08-20T00:13:42.980Z,11.00
2018-08-20T00:14:19.281Z,13.57
2018-08-20T00:14:53.985Z,12.33
2018-08-20T00:15:27.847Z,13.80
2018-08-20T00:16:01.704Z,10.80
2018-08-20T00:16:35.912Z,12.83
2018-08-20T00:17:10.117Z,10.13
2018-08-20T00:17:44.337Z,12.27
2018-08-20T00:18:23.545Z,13.93
2018-08-20T00:18:57.719Z,9.83
2018-08-20T00:19:31.904Z,17.93
2018-08-20T00:20:06.093Z,12.63
2018-08-20T00:20:40.283Z,13.23
2018-08-20T00:21:14.473Z,11.90
2018-08-20T00:21:48.329Z,13.03
2018-08-20T00:22:22.187Z,17.40
2018-08-20T00:22:56.385Z,9.97
2018-08-20T00:23:30.229Z,9.40
2018-08-20T00:24:04.419Z,10.80
2018-08-20T00:24:38.285Z,13.23
2018-08-20T00:25:15.587Z,12.10
2018-08-20T00:25:49.450Z,14.27
2018-08-20T00:26:23.309Z,13.17
2018-08-20T00:26:58.812Z,12.60
2018-08-20T00:27:32.675Z,13.13
2018-08-20T00:28:06.567Z,11.13
2018-08-20T00:28:40.441Z,10.23
2018-08-20T00:29:14.255Z,10.67
2018-08-20T00:29:48.109Z,15.20
2018-08-20T00:30:22.287Z,10.93
2018-08-20T00:30:56.179Z,13.50
2018-08-20T00:31:30.379Z,10.40
2018-08-20T00:32:04.318Z,10.47
2018-08-20T00:32:38.886Z,9.93
2018-08-20T00:33:12.779Z,12.73
2018-08-20T00:33:46.949Z,13.67
2018-08-20T00:34:21.131Z,17.63
2018-08-20T00:34:54.969Z,12.53
2018-08-20T00:35:28.827Z,11.60
2018-08-20T00:36:03.045Z,14.27
2018-08-20T00:36:36.893Z,12.43
2018-08-20T00:37:10.721Z,9.27
2018-08-20T00:37:47.279Z,12.47
2018-08-20T00:38:21.158Z,10.63
2018-08-20T00:38:55.462Z,13.23
2018-08-20T00:39:29.473Z,12.67
2018-08-20T00:40:03.369Z,11.50
2018-08-20T00:40:37.241Z,11.23
2018-08-20T00:41:11.097Z,13.13
2018-08-20T00:41:45.702Z,15.10
2018-08-20T00:42:19.885Z,11.17
2018-08-20T00:42:54.083Z,15.03
2018-08-20T00:43:28.355Z,12.60
2018-08-20T00:44:02.695Z,10.90
2018-08-20T00:44:36.589Z,12.93
2018-08-20T00:45:11.320Z,15.60
2018-08-20T00:45:45.214Z,10.90
2018-08-20T00:46:19.392Z,13.83
2018-08-20T00:46:53.589Z,12.70
2018-08-20T00:47:28.099Z,9.23
2018-08-20T00:48:02.317Z,13.10
2018-08-20T00:48:36.534Z,12.27
2018-08-20T00:49:10.393Z,12.47
2018-08-20T00:49:44.281Z,9.77
2018-08-20T00:50:18.168Z,10.20
2018-08-20T00:50:52.033Z,11.80
2018-08-20T00:51:25.914Z,14.33
2018-08-20T00:51:59.801Z,12.80
2018-08-20T00:52:34.212Z,12.63
2018-08-20T00:53:08.065Z,10.80
2018-08-20T00:53:42.297Z,12.77
2018-08-20T00:54:16.176Z,11.50
2018-08-20T00:54:50.040Z,14.13
2018-08-20T00:55:23.937Z,10.57
2018-08-20T00:55:57.761Z,13.40
2018-08-20T00:56:31.979Z,12.17
2018-08-20T00:57:06.183Z,11.67
2018-08-20T00:57:40.996Z,11.60
2018-08-20T00:58:14.905Z,13.60
2018-08-20T00:58:48.812Z,11.17
2018-08-20T00:59:22.681Z,13.20
2018-08-20T00:59:56.539Z,12.00
2018-08-20T01:00:30.396Z,14.30
2018-08-20T01:01:04.775Z,18.77
2018-08-20T01:01:38.679Z,10.57
2018-08-20T01:02:12.537Z,11.07
2018-08-20T01:02:46.726Z,11.30
2018-08-20T01:03:20.979Z,14.47
2018-08-20T01:03:54.860Z,13.63
2018-08-20T01:04:29.039Z,14.30
2018-08-20T01:05:03.208Z,16.67
2018-08-20T01:05:37.722Z,15.97
2018-08-20T01:06:11.568Z,12.83
2018-08-20T01:06:45.433Z,13.97
2018-08-20T01:07:19.711Z,15.30
2018-08-20T01:07:53.616Z,16.03
2018-08-20T01:08:27.469Z,11.53
2018-08-20T01:09:01.671Z,12.07
2018-08-20T01:09:35.861Z,12.73
2018-08-20T01:10:10.026Z,13.00
2018-08-20T01:10:43.897Z,14.20
2018-08-20T01:11:17.745Z,15.23
2018-08-20T01:11:51.935Z,17.47
2018-08-20T01:12:26.853Z,15.43
2018-08-20T01:13:00.714Z,12.20
2018-08-20T01:13:34.895Z,14.40
2018-08-20T01:14:08.819Z,13.20
2018-08-20T01:14:42.673Z,19.30
2018-08-20T01:15:16.522Z,15.90
2018-08-20T01:15:50.371Z,16.23
2018-08-20T01:16:24.248Z,10.80
2018-08-20T01:16:58.112Z,13.17
2018-08-20T01:17:32.303Z,12.90
2018-08-20T01:18:06.426Z,17.53
2018-08-20T01:18:40.801Z,17.53
2018-08-20T01:19:14.997Z,13.87
2018-08-20T01:19:49.208Z,18.73
2018-08-20T01:20:23.083Z,14.40
2018-08-20T01:20:56.908Z,11.73
2018-08-20T01:21:30.785Z,14.07
2018-08-20T01:22:04.985Z,13.70
2018-08-20T01:22:39.507Z,13.03
2018-08-20T01:23:13.697Z,10.63
2018-08-20T01:23:47.537Z,11.00
2018-08-20T01:24:21.429Z,15.60
2018-08-20T01:24:55.613Z,14.70
2018-08-20T01:25:29.520Z,16.00
2018-08-20T01:26:03.401Z,13.27
2018-08-20T01:26:37.265Z,13.37
2018-08-20T01:27:15.472Z,13.47
2018-08-20T01:27:50.105Z,11.90
2018-08-20T01:28:24.305Z,13.67
2018-08-20T01:28:58.503Z,15.63
2018-08-20T01:29:32.409Z,15.70
2018-08-20T01:30:06.303Z,16.13
2018-08-20T01:30:40.145Z,14.23
2018-08-20T01:31:14.020Z,18.50
2018-08-20T01:31:47.897Z,20.37
2018-08-20T01:32:21.980Z,14.17
2018-08-20T01:33:01.673Z,15.13
2018-08-20T01:33:35.540Z,14.97
2018-08-20T01:34:09.529Z,17.97
2018-08-20T01:34:43.426Z,16.30
2018-08-20T01:35:25.923Z,17.87
2018-08-20T01:35:59.799Z,13.70
2018-08-20T01:36:33.873Z,15.57
2018-08-20T01:37:08.096Z,19.53
2018-08-20T01:37:41.955Z,14.73
2018-08-20T01:38:15.803Z,15.13
2018-08-20T01:38:49.677Z,19.50
2018-08-20T01:39:23.525Z,15.83
2018-08-20T01:39:57.409Z,27.00
2018-08-20T01:40:31.313Z,16.03
2018-08-20T01:41:05.485Z,20.30
2018-08-20T01:41:39.353Z,20.83
2018-08-20T01:42:13.873Z,19.80
2018-08-20T01:42:47.713Z,17.17
2018-08-20T01:43:21.573Z,17.83
2018-08-20T01:43:55.410Z,16.03
2018-08-20T01:44:29.605Z,15.07
2018-08-20T01:45:03.502Z,17.33
2018-08-20T01:45:37.370Z,17.80
2018-08-20T01:46:11.570Z,17.73
2018-08-20T01:46:45.465Z,16.67
2018-08-20T01:47:19.322Z,17.20
2018-08-20T01:47:53.513Z,17.23
2018-08-20T01:48:27.355Z,18.70
2018-08-20T01:49:01.217Z,18.33
2018-08-20T01:49:35.399Z,22.33
2018-08-20T01:50:09.921Z,24.20
2018-08-20T01:50:43.751Z,14.70
2018-08-20T01:51:17.943Z,17.27
2018-08-20T01:51:51.782Z,22.40
2018-08-20T01:52:25.632Z,19.90
2018-08-20T01:52:59.825Z,20.23
2018-08-20T01:53:33.698Z,22.60
2018-08-20T01:54:07.545Z,22.70
2018-08-20T01:54:41.784Z,22.93
2018-08-20T01:55:15.677Z,20.90
2018-08-20T01:55:49.895Z,21.83
2018-08-20T01:56:24.143Z,18.87
2018-08-20T01:56:58.030Z,19.13
2018-08-20T01:57:31.889Z,19.00
2018-08-20T01:58:06.047Z,23.77
2018-08-20T01:58:40.307Z,21.93
2018-08-20T01:59:14.545Z,17.93
2018-08-20T01:59:48.445Z,19.40
2018-08-20T02:00:22.990Z,18.63
2018-08-20T02:00:56.842Z,20.30
2018-08-20T02:01:30.735Z,20.10
2018-08-20T02:02:04.636Z,29.73
2018-08-20T02:02:38.469Z,17.20
2018-08-20T02:03:12.319Z,22.10
2018-08-20T02:03:46.865Z,18.60
2018-08-20T02:04:20.759Z,16.47
2018-08-20T02:04:54.623Z,19.00
2018-08-20T02:05:28.861Z,19.43
2018-08-20T02:06:02.759Z,20.63
2018-08-20T02:06:36.636Z,18.60
2018-08-20T02:07:10.461Z,19.60
2018-08-20T02:07:44.362Z,16.87
2018-08-20T02:08:18.275Z,18.67
2018-08-20T02:08:52.515Z,22.60
2018-08-20T02:09:26.350Z,20.37
2018-08-20T02:10:00.199Z,21.00
2018-08-20T02:10:34.451Z,20.57
2018-08-20T02:11:08.363Z,22.10
2018-08-20T02:11:42.215Z,21.40
2018-08-20T02:12:16.399Z,19.30
2018-08-20T02:12:50.291Z,19.80
2018-08-20T02:13:24.545Z,19.70
2018-08-20T02:13:59.737Z,20.93
2018-08-20T02:14:33.593Z,18.30
2018-08-20T02:15:07.903Z,19.83
2018-08-20T02:15:41.785Z,20.53
2018-08-20T02:16:15.647Z,22.97
2018-08-20T02:16:49.537Z,17.17
2018-08-20T02:17:23.415Z,17.87
2018-08-20T02:17:57.709Z,21.33
2018-08-20T02:18:32.145Z,21.87
2018-08-20T02:19:06.901Z,22.57
2018-08-20T02:19:40.892Z,23.77
2018-08-20T02:20:14.731Z,17.27
2018-08-20T02:20:48.641Z,23.63
2018-08-20T02:21:22.522Z,25.57
2018-08-20T02:21:56.701Z,18.30
2018-08-20T02:22:30.913Z,22.80
2018-08-20T02:23:05.280Z,21.93
2018-08-20T02:23:39.139Z,26.97
2018-08-20T02:24:12.993Z,25.03
2018-08-20T02:24:46.836Z,21.30
2018-08-20T02:25:20.706Z,26.43
2018-08-20T02:25:54.927Z,22.53
2018-08-20T02:26:29.325Z,23.27
2018-08-20T02:27:03.175Z,22.33
2018-08-20T02:27:37.395Z,21.63
2018-08-20T02:28:11.229Z,22.40
2018-08-20T02:28:45.083Z,23.20
2018-08-20T02:29:19.286Z,25.93
2018-08-20T02:29:53.150Z,22.83
2018-08-20T02:30:27.039Z,27.37
2018-08-20T02:31:00.929Z,23.00
2018-08-20T02:31:34.760Z,19.50
2018-08-20T02:32:08.958Z,21.43
2018-08-20T02:32:43.469Z,25.80
2018-08-20T02:33:17.328Z,24.33
2018-08-20T02:33:51.226Z,23.07
2018-08-20T02:34:25.101Z,24.07
2018-08-20T02:34:58.951Z,26.90
2018-08-20T02:35:32.805Z,22.30
2018-08-20T02:36:06.701Z,22.93
2018-08-20T02:36:40.564Z,24.90
2018-08-20T02:37:14.753Z,24.13
2018-08-20T02:37:49.299Z,23.10
2018-08-20T02:38:23.160Z,22.17
2018-08-20T02:38:57.372Z,21.37
2018-08-20T02:39:31.234Z,24.30
2018-08-20T02:40:06.386Z,24.70
2018-08-20T02:40:40.627Z,24.97
2018-08-20T02:41:15.197Z,25.97
2018-08-20T02:41:49.075Z,22.67
2018-08-20T02:42:23.608Z,25.90
2018-08-20T02:42:58.146Z,24.40
2018-08-20T02:43:32.345Z,26.10
2018-08-20T02:44:06.481Z,28.43
2018-08-20T02:44:40.368Z,24.43
2018-08-20T02:45:16.236Z,27.53
2018-08-20T02:45:50.108Z,26.63
2018-08-20T02:46:36.258Z,24.53
2018-08-20T02:47:10.117Z,25.97
2018-08-20T02:47:44.432Z,31.30
2018-08-20T02:48:18.288Z,30.37
2018-08-20T02:48:52.448Z,28.97
2018-08-20T02:49:26.307Z,23.40
2018-08-20T02:50:00.169Z,30.83
2018-08-20T02:50:34.688Z,25.33
2018-08-20T02:51:08.892Z,28.07
2018-08-20T02:51:42.745Z,26.90
2018-08-20T02:52:16.947Z,24.57
2018-08-20T02:52:51.134Z,25.97
2018-08-20T02:53:25.011Z,25.20
2018-08-20T02:53:58.873Z,24.50
2018-08-20T02:54:33.076Z,29.57
2018-08-20T02:55:07.290Z,24.60
2018-08-20T02:55:41.156Z,24.67
2018-08-20T02:56:15.334Z,23.80
2018-08-20T02:56:49.223Z,24.30
2018-08-20T02:57:23.412Z,29.57
2018-08-20T02:57:57.605Z,26.10
2018-08-20T02:58:31.800Z,24.23
2018-08-20T02:59:05.694Z,29.27
2018-08-20T02:59:39.932Z,33.07
2018-08-20T03:00:14.602Z,26.47
2018-08-20T03:00:48.452Z,25.40
2018-08-20T03:01:22.674Z,27.03
2018-08-20T03:01:56.940Z,28.00
2018-08-20T03:02:31.155Z,27.80
2018-08-20T03:04:19.065Z,32.10
2018-08-20T03:04:52.906Z,25.30
2018-08-20T03:05:26.761Z,24.77
2018-08-20T03:06:00.622Z,31.50
2018-08-20T03:06:35.016Z,26.50
2018-08-20T03:07:09.230Z,27.93
2018-08-20T03:07:43.815Z,24.60
2018-08-20T03:08:17.673Z,27.53
2018-08-20T03:08:51.876Z,27.80
2018-08-20T03:09:26.396Z,25.03
2018-08-20T03:10:00.246Z,27.07
2018-08-20T03:10:34.078Z,27.07
2018-08-20T03:11:08.255Z,26.83
2018-08-20T03:11:42.134Z,30.27
2018-08-20T03:12:16.026Z,28.50
2018-08-20T03:12:50.190Z,25.90
2018-08-20T03:13:24.100Z,34.63
2018-08-20T03:13:57.972Z,26.03
2018-08-20T03:14:31.808Z,27.90
2018-08-20T03:15:06.606Z,24.13
2018-08-20T03:15:40.482Z,27.47
2018-08-20T03:16:14.379Z,31.77
2018-08-20T03:16:48.230Z,28.80
2018-08-20T03:17:22.468Z,23.43
2018-08-20T03:17:56.898Z,25.13
2018-08-20T03:18:30.778Z,29.83
2018-08-20T03:19:05.190Z,28.03
2018-08-20T03:19:39.420Z,28.77
2018-08-20T03:20:13.646Z,28.67
2018-08-20T03:20:47.502Z,28.10
2018-08-20T03:21:21.456Z,26.00
2018-08-20T03:21:55.307Z,28.20
2018-08-20T03:22:29.398Z,33.87
2018-08-20T03:23:03.275Z,24.90
2018-08-20T03:23:37.516Z,24.73
2018-08-20T03:24:11.702Z,25.77
2018-08-20T03:24:45.564Z,25.87
2018-08-20T03:25:19.817Z,26.73
2018-08-20T03:25:54.037Z,25.93
2018-08-20T03:26:28.380Z,28.90
2018-08-20T03:27:02.270Z,27.10
2018-08-20T03:27:36.620Z,28.23
2018-08-20T03:28:10.822Z,27.40
2018-08-20T03:28:44.680Z,32.23
2018-08-20T03:29:18.881Z,28.10
2018-08-20T03:29:52.710Z,32.80
2018-08-20T03:31:30.690Z,31.50
2018-08-20T03:32:04.571Z,28.77
2018-08-20T03:32:38.910Z,25.40
2018-08-20T03:33:12.750Z,31.83
2018-08-20T03:33:46.594Z,26.33
2018-08-20T03:34:20.449Z,28.87
2018-08-20T03:34:54.387Z,30.03
2018-08-20T03:35:28.494Z,26.80
2018-08-20T03:36:02.716Z,29.43
2018-08-20T03:36:36.556Z,31.50
2018-08-20T03:37:10.864Z,31.63
2018-08-20T03:37:44.759Z,31.77
2018-08-20T03:38:18.715Z,28.77
2018-08-20T03:38:52.899Z,27.67
2018-08-20T03:39:26.756Z,34.87
2018-08-20T03:40:00.624Z,28.60
2018-08-20T03:40:34.826Z,30.80
2018-08-20T03:41:08.659Z,35.83
2018-08-20T03:41:42.920Z,30.10
2018-08-20T03:42:17.119Z,25.73
2018-08-20T03:42:51.002Z,29.10
2018-08-20T03:43:24.849Z,28.60
2018-08-20T03:43:58.708Z,26.83
2018-08-20T03:44:32.680Z,30.33
2018-08-20T03:45:07.458Z,26.83
2018-08-20T03:45:41.306Z,29.87
2018-08-20T03:46:15.234Z,28.10
2018-08-20T03:46:49.548Z,31.47
2018-08-20T03:47:23.400Z,27.63
2018-08-20T03:47:57.602Z,28.70
2018-08-20T03:48:31.456Z,29.50
2018-08-20T03:49:06.042Z,29.07
2018-08-20T03:49:39.898Z,30.87
2018-08-20T03:50:14.724Z,27.30
2018-08-20T03:50:48.884Z,26.60
2018-08-20T03:51:22.726Z,27.83
2018-08-20T03:51:56.581Z,29.20
2018-08-20T03:52:31.155Z,27.63
2018-08-20T03:53:05.572Z,29.50
2018-08-20T03:53:39.447Z,26.80
2018-08-20T03:54:13.844Z,29.33
2018-08-20T03:54:47.732Z,29.60
2018-08-20T03:55:21.611Z,26.43
2018-08-20T03:55:55.810Z,28.50
2018-08-20T03:56:29.654Z,28.73
2018-08-20T03:57:03.492Z,25.57
2018-08-20T03:57:38.366Z,27.77
2018-08-20T03:58:12.572Z,25.67
2018-08-20T03:58:46.482Z,22.90
2018-08-20T03:59:32.426Z,28.63
2018-08-20T04:00:07.966Z,26.03
2018-08-20T04:00:42.486Z,26.33
2018-08-20T04:01:16.392Z,24.80
2018-08-20T04:01:50.232Z,27.30
2018-08-20T04:02:24.086Z,24.70
2018-08-20T04:02:58.877Z,22.40
2018-08-20T04:03:35.037Z,24.10
2018-08-20T04:04:08.886Z,30.23
2018-08-20T04:04:42.734Z,27.87
2018-08-20T04:05:16.784Z,22.03
2018-08-20T04:05:50.639Z,24.53
2018-08-20T04:06:24.488Z,29.93
2018-08-20T04:06:59.714Z,32.67
2018-08-20T04:07:33.551Z,29.20
2018-08-20T04:08:10.441Z,27.67
2018-08-20T04:08:44.300Z,24.20
2018-08-20T04:09:18.525Z,30.70
2018-08-20T04:09:52.378Z,24.03
2018-08-20T04:10:26.259Z,23.20
2018-08-20T04:11:00.466Z,25.00
2018-08-20T04:11:34.337Z,26.90
2018-08-20T04:12:08.186Z,25.53
2018-08-20T04:12:42.070Z,29.70
2018-08-20T04:13:15.926Z,23.03
2018-08-20T04:13:49.821Z,22.87
2018-08-20T04:14:23.666Z,28.40
2018-08-20T04:14:57.534Z,24.30
2018-08-20T04:15:31.421Z,23.50
2018-08-20T04:16:05.608Z,27.57
2018-08-20T04:16:39.488Z,26.30
2018-08-20T04:17:13.368Z,24.97
2018-08-20T04:17:47.220Z,24.63
2018-08-20T04:18:21.390Z,25.60
2018-08-20T04:18:59.984Z,27.27
2018-08-20T04:19:34.123Z,27.10
2018-08-20T04:20:07.977Z,26.67
2018-08-20T04:20:41.814Z,31.03
2018-08-20T04:21:15.809Z,23.03
2018-08-20T04:21:50.039Z,25.07
2018-08-20T04:22:23.897Z,27.07
2018-08-20T04:22:58.270Z,25.20
2018-08-20T04:23:32.111Z,27.13
2018-08-20T04:24:06.096Z,25.30
2018-08-20T04:24:39.956Z,28.00
2018-08-20T04:25:14.682Z,24.47
2018-08-20T04:25:48.604Z,25.00
2018-08-20T04:26:22.498Z,27.57
2018-08-20T04:26:56.370Z,20.47
2018-08-20T04:27:30.222Z,22.63
2018-08-20T04:28:04.116Z,28.30
2018-08-20T04:28:37.952Z,27.10
2018-08-20T04:29:11.828Z,19.77
2018-08-20T04:29:45.686Z,23.43
2018-08-20T04:30:19.544Z,25.90
2018-08-20T04:30:53.428Z,24.87
2018-08-20T04:31:27.323Z,24.40
2018-08-20T04:32:01.169Z,24.00
2018-08-20T04:32:35.029Z,22.57
2018-08-20T04:33:09.198Z,22.97
2018-08-20T04:33:43.060Z,24.20
2018-08-20T04:34:16.998Z,20.93
2018-08-20T04:34:50.854Z,23.87
2018-08-20T04:35:24.704Z,22.37
2018-08-20T04:35:58.592Z,24.33
2018-08-20T04:36:32.486Z,20.90
2018-08-20T04:37:06.542Z,27.63
2018-08-20T04:37:40.385Z,19.93
2018-08-20T04:38:14.236Z,21.43
2018-08-20T04:38:48.464Z,24.00
2018-08-20T04:39:22.372Z,24.00
2018-08-20T04:39:56.552Z,24.07
2018-08-20T04:40:30.419Z,20.40
2018-08-20T04:41:04.612Z,21.47
2018-08-20T04:41:38.756Z,27.47
2018-08-20T04:42:12.692Z,28.00
2018-08-20T04:42:46.659Z,26.93
2018-08-20T04:43:20.519Z,23.73
2018-08-20T04:43:54.446Z,25.40
2018-08-20T04:44:28.744Z,18.70
2018-08-20T04:45:02.610Z,25.17
2018-08-20T04:45:36.480Z,22.10
2018-08-20T04:46:10.380Z,19.73
2018-08-20T04:46:44.230Z,25.50
2018-08-20T04:47:18.415Z,24.83
2018-08-20T04:47:52.336Z,25.20
2018-08-20T04:48:26.286Z,23.87
2018-08-20T04:49:00.429Z,22.47
2018-08-20T04:49:34.328Z,22.03
2018-08-20T04:50:09.991Z,21.73
2018-08-20T04:50:44.057Z,18.57
2018-08-20T04:51:18.615Z,31.73
2018-08-20T04:51:52.604Z,23.37
2018-08-20T04:52:26.773Z,22.30
2018-08-20T04:53:00.709Z,19.23
2018-08-20T04:53:38.546Z,24.40
2018-08-20T04:54:13.528Z,25.90
2018-08-20T04:54:47.502Z,19.73
2018-08-20T04:55:21.371Z,20.57
2018-08-20T04:55:55.217Z,21.50
2018-08-20T04:56:29.070Z,19.77
2018-08-20T04:57:02.902Z,23.67
2018-08-20T04:57:37.159Z,24.93
2018-08-20T04:58:10.994Z,21.30
2018-08-20T04:59:47.897Z,27.93
2018-08-20T05:00:22.411Z,21.50
2018-08-20T05:00:56.238Z,20.27
2018-08-20T05:01:30.097Z,23.03
2018-08-20T05:02:04.528Z,19.97
2018-08-20T05:02:38.442Z,19.47
2018-08-20T05:03:16.041Z,21.20
2018-08-20T05:03:49.960Z,18.47
2018-08-20T05:04:24.011Z,21.60
2018-08-20T05:04:57.903Z,20.40
2018-08-20T05:05:31.757Z,19.00
2018-08-20T05:06:05.820Z,20.80
2018-08-20T05:06:39.708Z,18.40
2018-08-20T05:07:13.900Z,18.83
2018-08-20T05:07:47.759Z,20.40
2018-08-20T05:08:21.627Z,22.03
2018-08-20T05:08:55.505Z,22.87
2018-08-20T05:09:29.381Z,17.77
2018-08-20T05:10:03.408Z,20.37
2018-08-20T05:10:37.491Z,17.87
2018-08-20T05:11:11.409Z,20.00
2018-08-20T05:11:45.302Z,16.87
2018-08-20T05:12:19.144Z,16.93
2018-08-20T05:12:52.992Z,20.13
2018-08-20T05:13:27.173Z,19.93
2018-08-20T05:14:01.048Z,20.07
2018-08-20T05:14:34.920Z,17.67
2018-08-20T05:15:10.017Z,22.27
2018-08-20T05:15:43.918Z,19.83
2018-08-20T05:16:18.117Z,16.90
2018-08-20T05:16:51.989Z,18.80
2018-08-20T05:17:25.889Z,18.63
2018-08-20T05:18:00.091Z,18.57
2018-08-20T05:18:34.307Z,19.57
2018-08-20T05:19:08.511Z,17.90
2018-08-20T05:19:42.417Z,17.53
2018-08-20T05:20:16.329Z,24.27
2018-08-20T05:20:50.190Z,19.00
2018-08-20T05:21:24.090Z,18.53
2018-08-20T05:21:57.982Z,18.50
2018-08-20T05:22:31.856Z,22.20
2018-08-20T05:23:06.035Z,19.60
2018-08-20T05:23:39.897Z,16.70
2018-08-20T05:24:13.776Z,16.53
2018-08-20T05:24:47.956Z,18.13
2018-08-20T05:25:21.834Z,17.53
2018-08-20T05:25:55.697Z,22.77
2018-08-20T05:26:29.589Z,17.40
2018-08-20T05:27:03.810Z,18.77
2018-08-20T05:27:37.926Z,20.17
2018-08-20T05:28:11.805Z,21.03
2018-08-20T05:28:45.687Z,19.03
2018-08-20T05:29:19.913Z,16.43
2018-08-20T05:29:54.322Z,16.00
2018-08-20T05:30:28.270Z,19.07
2018-08-20T05:31:02.104Z,18.20
2018-08-20T05:31:35.983Z,18.30
2018-08-20T05:32:09.827Z,16.20
2018-08-20T05:32:43.692Z,18.10
2018-08-20T05:33:17.591Z,18.53
2018-08-20T05:33:51.921Z,16.27
2018-08-20T05:34:25.786Z,15.53
2018-08-20T05:34:59.665Z,17.73
2018-08-20T05:35:33.907Z,18.80
2018-08-20T05:36:08.135Z,15.47
2018-08-20T05:36:42.109Z,18.33
2018-08-20T05:37:16.618Z,17.47
2018-08-20T05:37:50.487Z,15.90
2018-08-20T05:38:24.360Z,15.53
2018-08-20T05:38:58.547Z,17.00
2018-08-20T05:39:32.425Z,18.53
2018-08-20T05:40:06.337Z,15.47
2018-08-20T05:40:40.670Z,22.17
2018-08-20T05:41:14.522Z,15.80
2018-08-20T05:41:48.385Z,16.90
2018-08-20T05:42:22.585Z,14.23
2018-08-20T05:42:56.477Z,16.13
2018-08-20T05:43:30.674Z,18.43
2018-08-20T05:44:04.590Z,15.60
2018-08-20T05:44:38.531Z,13.43
2018-08-20T05:45:12.807Z,16.93
2018-08-20T05:45:47.073Z,17.40
2018-08-20T05:46:20.987Z,18.63
2018-08-20T05:46:54.851Z,14.20
2018-08-20T05:47:29.100Z,16.57
2018-08-20T05:48:02.987Z,19.43
2018-08-20T05:48:37.523Z,14.10
2018-08-20T05:49:11.372Z,13.70
2018-08-20T05:49:45.585Z,14.73
2018-08-20T05:50:19.458Z,12.60
2018-08-20T05:50:53.425Z,13.60
2018-08-20T05:51:27.637Z,12.43
2018-08-20T05:52:02.211Z,13.93
2018-08-20T05:52:36.689Z,14.90
2018-08-20T05:53:11.097Z,12.50
2018-08-20T05:53:44.993Z,16.67
2018-08-20T05:54:19.542Z,12.73
2018-08-20T05:54:53.710Z,14.30
2018-08-20T05:55:27.625Z,14.70
2018-08-20T05:56:01.648Z,13.27
2018-08-20T05:56:35.491Z,14.50
2018-08-20T05:57:09.346Z,15.80
2018-08-20T05:57:43.213Z,12.90
2018-08-20T05:58:17.098Z,13.83
2018-08-20T05:58:51.813Z,13.07
2018-08-20T05:59:25.691Z,11.20
2018-08-20T05:59:59.596Z,13.63
2018-08-20T06:00:33.825Z,11.47
2018-08-20T06:01:07.697Z,14.20
2018-08-20T06:01:41.899Z,14.60
2018-08-20T06:02:16.530Z,12.60
2018-08-20T06:02:50.370Z,11.40
2018-08-20T06:03:24.283Z,13.50
2018-08-20T06:03:58.163Z,13.00
2018-08-20T06:04:31.997Z,12.00
2018-08-20T06:05:06.171Z,10.27
2018-08-20T06:05:40.040Z,11.57
2018-08-20T06:06:13.977Z,10.70
2018-08-20T06:06:47.871Z,13.23
2018-08-20T06:07:21.743Z,11.00
2018-08-20T06:07:55.617Z,12.30
2018-08-20T06:08:29.677Z,11.20
2018-08-20T06:09:04.371Z,11.70
2018-08-20T06:09:38.286Z,15.47
2018-08-20T06:10:12.489Z,12.03
2018-08-20T06:10:46.359Z,10.07
2018-08-20T06:11:20.391Z,13.30
2018-08-20T06:11:54.257Z,12.60
2018-08-20T06:12:28.161Z,8.77
2018-08-20T06:13:02.401Z,12.97
2018-08-20T06:13:36.651Z,14.40
2018-08-20T06:14:17.370Z,13.47
2018-08-20T06:14:51.236Z,16.17
2018-08-20T06:15:25.410Z,14.97
2018-08-20T06:15:59.295Z,9.87
2018-08-20T06:16:33.741Z,13.10
2018-08-20T06:17:07.607Z,11.77
2018-08-20T06:17:41.493Z,13.90
2018-08-20T06:18:15.380Z,13.50
2018-08-20T06:18:49.233Z,13.00
2018-08-20T06:19:23.442Z,10.93
2018-08-20T06:19:57.617Z,10.40
2018-08-20T06:20:32.145Z,11.83
2018-08-20T06:21:06.045Z,11.17
2018-08-20T06:21:40.241Z,12.50
2018-08-20T06:22:14.071Z,11.80
2018-08-20T06:22:48.259Z,12.27
2018-08-20T06:23:22.097Z,12.47
2018-08-20T06:23:56.022Z,12.53
2018-08-20T06:24:30.230Z,11.40
2018-08-20T06:25:04.591Z,10.70
2018-08-20T06:25:38.633Z,12.20
2018-08-20T06:26:12.527Z,12.20
2018-08-20T06:26:46.751Z,9.30
2018-08-20T06:27:20.729Z,13.67
2018-08-20T06:27:54.885Z,10.47
2018-08-20T06:28:28.760Z,13.27
2018-08-20T06:29:03.152Z,13.67
2018-08-20T06:29:37.000Z,16.63
2018-08-20T06:30:15.221Z,16.47
2018-08-20T06:30:49.397Z,14.50
2018-08-20T06:31:23.233Z,9.03
2018-08-20T06:31:57.477Z,11.67
2018-08-20T06:32:31.662Z,8.77
2018-08-20T06:33:05.691Z,11.80
2018-08-20T06:33:39.877Z,9.87
2018-08-20T06:34:14.057Z,10.93
2018-08-20T06:34:47.909Z,12.93
2018-08-20T06:35:21.741Z,12.33
2018-08-20T06:35:55.580Z,12.30
2018-08-20T06:36:29.771Z,10.47
2018-08-20T06:37:03.637Z,14.63
2018-08-20T06:37:38.028Z,9.50
2018-08-20T06:38:12.575Z,17.60
2018-08-20T06:38:46.476Z,18.90
2018-08-20T06:39:20.679Z,15.73
2018-08-20T06:39:54.857Z,11.53
2018-08-20T06:40:28.713Z,12.07
2018-08-20T06:41:02.897Z,12.97
2018-08-20T06:41:36.796Z,10.93
2018-08-20T06:42:11.163Z,9.57
2018-08-20T06:42:45.012Z,11.70
2018-08-20T06:43:18.864Z,14.77
2018-08-20T06:43:53.076Z,19.87
2018-08-20T06:44:26.946Z,12.37
2018-08-20T06:45:01.111Z,13.97
2018-08-20T06:45:35.290Z,11.37
2018-08-20T06:46:09.141Z,9.03
2018-08-20T06:46:43.319Z,10.60
2018-08-20T06:47:17.197Z,11.67
2018-08-20T06:47:51.389Z,11.23
2018-08-20T06:48:25.566Z,18.37
2018-08-20T06:48:59.425Z,11.87
2018-08-20T06:49:33.631Z,14.23
2018-08-20T06:50:07.511Z,10.83
2018-08-20T06:50:41.686Z,10.40
2018-08-20T06:51:15.622Z,11.60
2018-08-20T06:51:49.475Z,16.03
2018-08-20T06:52:23.613Z,12.50
2018-08-20T06:52:57.550Z,15.73
2018-08-20T06:53:31.409Z,11.30
2018-08-20T06:54:05.290Z,13.53
2018-08-20T06:54:39.134Z,19.77
2018-08-20T06:55:14.481Z,9.90
2018-08-20T06:55:48.650Z,13.10
2018-08-20T06:56:23.177Z,11.30
2018-08-20T06:56:57.066Z,10.43
2018-08-20T06:57:31.286Z,12.73
2018-08-20T06:58:05.139Z,12.40
2018-08-20T06:58:39.315Z,10.27
2018-08-20T06:59:13.501Z,9.30
2018-08-20T06:59:47.680Z,10.60
2018-08-20T07:00:21.553Z,13.20
2018-08-20T07:00:55.738Z,11.07
2018-08-20T07:01:29.786Z,10.93
2018-08-20T07:02:03.641Z,11.10
2018-08-20T07:02:38.124Z,11.83
2018-08-20T07:03:11.982Z,14.30
2018-08-20T07:03:46.536Z,12.10
2018-08-20T07:04:20.400Z,10.67
2018-08-20T07:04:54.564Z,8.53
2018-08-20T07:05:28.409Z,10.33
2018-08-20T07:06:02.604Z,10.20
2018-08-20T07:06:36.784Z,12.63
2018-08-20T07:07:10.616Z,13.30
2018-08-20T07:07:44.478Z,9.57
2018-08-20T07:08:18.323Z,10.80
2018-08-20T07:08:52.512Z,8.07
2018-08-20T07:09:26.351Z,14.40
2018-08-20T07:10:00.240Z,7.23
2018-08-20T07:10:42.160Z,13.40
2018-08-20T07:11:16.364Z,13.83
2018-08-20T07:11:50.937Z,9.33
2018-08-20T07:12:25.054Z,8.73
2018-08-20T07:13:08.963Z,9.03
2018-08-20T07:13:42.822Z,10.17
2018-08-20T07:14:16.989Z,10.97
2018-08-20T07:14:50.856Z,16.47
2018-08-20T07:15:24.720Z,10.27
2018-08-20T07:15:58.576Z,9.70
2018-08-20T07:16:32.421Z,8.10
2018-08-20T07:17:06.600Z,9.37
2018-08-20T07:17:40.429Z,10.50
2018-08-20T07:18:14.292Z,9.17
2018-08-20T07:18:48.149Z,9.43
2018-08-20T07:19:22.048Z,11.67
2018-08-20T07:19:56.618Z,9.83
2018-08-20T07:20:30.502Z,11.27
2018-08-20T07:21:04.352Z,7.70
2018-08-20T07:21:38.266Z,11.57
2018-08-20T07:22:12.131Z,10.07
2018-08-20T07:22:46.400Z,12.60
2018-08-20T07:23:20.504Z,9.83
2018-08-20T07:23:54.698Z,12.73
2018-08-20T07:24:29.058Z,8.00
2018-08-20T07:25:02.930Z,10.23